sensor_id;sensor_type;location;lat;lon;timestamp;P1;durP1;ratioP1;P2;durP2;ratioP2
4355;SDS011;64374;51.482;7.408;2023-02-01T00:01:35;33.30;;;11.87;;
4355;SDS011;64374;51.482;7.408;2023-02-01T00:04:03;23.47;;;10.30;;
4355;SDS011;64374;51.482;7.408;2023-02-01T00:06:32;29.53;;;11.50;;
4355;SDS011;64374;51.482;7.408;2023-02-01T00:09:01;20.20;;;9.37;;
4355;SDS011;64374;51.482;7.408;2023-02-01T00:11:31;20.57;;;10.20;;
4355;SDS011;64374;51.482;7.408;2023-02-01T00:14:01;26.93;;;11.30;;
4355;SDS011;64374;51.482;7.408;2023-02-01T00:16:30;19.10;;;8.00;;
4355;SDS011;64374;51.482;7.408;2023-02-01T00:19:00;20.53;;;9.77;;
4355;SDS011;64374;51.482;7.408;2023-02-01T00:21:30;20.83;;;9.47;;
4355;SDS011;64374;51.482;7.408;2023-02-01T00:23:58;22.03;;;7.70;;
4355;SDS011;64374;51.482;7.408;2023-02-01T00:26:30;19.57;;;8.47;;
4355;SDS011;64374;51.482;7.408;2023-02-01T00:29:02;23.20;;;8.30;;
4355;SDS011;64374;51.482;7.408;2023-02-01T00:31:32;24.03;;;7.60;;
4355;SDS011;64374;51.482;7.408;2023-02-01T00:34:01;15.90;;;7.03;;
4355;SDS011;64374;51.482;7.408;2023-02-01T00:36:29;17.20;;;7.20;;
4355;SDS011;64374;51.482;7.408;2023-02-01T00:38:59;24.97;;;7.90;;
4355;SDS011;64374;51.482;7.408;2023-02-01T00:41:27;19.90;;;6.03;;
4355;SDS011;64374;51.482;7.408;2023-02-01T00:43:56;22.03;;;8.17;;
4355;SDS011;64374;51.482;7.408;2023-02-01T00:46:26;13.43;;;6.33;;
4355;SDS011;64374;51.482;7.408;2023-02-01T00:48:55;25.87;;;6.43;;
4355;SDS011;64374;51.482;7.408;2023-02-01T00:51:26;17.10;;;5.63;;
4355;SDS011;64374;51.482;7.408;2023-02-01T00:53:55;18.10;;;5.30;;
4355;SDS011;64374;51.482;7.408;2023-02-01T00:56:24;11.30;;;5.30;;
4355;SDS011;64374;51.482;7.408;2023-02-01T00:58:54;16.57;;;6.00;;
4355;SDS011;64374;51.482;7.408;2023-02-01T01:01:23;16.77;;;5.63;;
4355;SDS011;64374;51.482;7.408;2023-02-01T01:03:56;13.87;;;3.93;;
4355;SDS011;64374;51.482;7.408;2023-02-01T01:06:26;18.07;;;4.73;;
4355;SDS011;64374;51.482;7.408;2023-02-01T01:08:57;15.00;;;4.93;;
4355;SDS011;64374;51.482;7.408;2023-02-01T01:11:29;22.33;;;4.93;;
4355;SDS011;64374;51.482;7.408;2023-02-01T01:13:59;17.90;;;4.90;;
4355;SDS011;64374;51.482;7.408;2023-02-01T01:16:28;14.73;;;3.97;;
4355;SDS011;64374;51.482;7.408;2023-02-01T01:19:01;17.77;;;4.30;;
4355;SDS011;64374;51.482;7.408;2023-02-01T01:21:30;14.70;;;4.20;;
4355;SDS011;64374;51.482;7.408;2023-02-01T01:23:59;18.63;;;5.53;;
4355;SDS011;64374;51.482;7.408;2023-02-01T01:26:29;14.00;;;4.13;;
4355;SDS011;64374;51.482;7.408;2023-02-01T01:28:58;13.00;;;3.80;;
4355;SDS011;64374;51.482;7.408;2023-02-01T01:31:27;15.27;;;4.07;;
4355;SDS011;64374;51.482;7.408;2023-02-01T01:33:57;8.83;;;3.77;;
4355;SDS011;64374;51.482;7.408;2023-02-01T01:36:29;15.80;;;4.73;;
4355;SDS011;64374;51.482;7.408;2023-02-01T01:38:57;12.03;;;4.60;;
4355;SDS011;64374;51.482;7.408;2023-02-01T01:41:28;13.03;;;4.53;;
4355;SDS011;64374;51.482;7.408;2023-02-01T01:47:29;19.70;;;6.60;;
4355;SDS011;64374;51.482;7.408;2023-02-01T01:50:01;12.97;;;4.97;;
4355;SDS011;64374;51.482;7.408;2023-02-01T01:52:32;16.40;;;4.40;;
4355;SDS011;64374;51.482;7.408;2023-02-01T01:55:02;14.63;;;5.40;;
4355;SDS011;64374;51.482;7.408;2023-02-01T01:57:33;14.53;;;4.90;;
4355;SDS011;64374;51.482;7.408;2023-02-01T02:00:05;8.63;;;4.67;;
4355;SDS011;64374;51.482;7.408;2023-02-01T02:02:39;15.00;;;5.53;;
4355;SDS011;64374;51.482;7.408;2023-02-01T02:05:09;15.23;;;5.13;;
4355;SDS011;64374;51.482;7.408;2023-02-01T02:07:41;16.40;;;5.30;;
4355;SDS011;64374;51.482;7.408;2023-02-01T02:10:12;16.30;;;5.17;;
4355;SDS011;64374;51.482;7.408;2023-02-01T02:12:43;14.43;;;5.13;;
4355;SDS011;64374;51.482;7.408;2023-02-01T02:15:14;18.10;;;5.30;;
4355;SDS011;64374;51.482;7.408;2023-02-01T02:17:49;13.70;;;5.47;;
4355;SDS011;64374;51.482;7.408;2023-02-01T02:20:32;17.83;;;6.00;;
4355;SDS011;64374;51.482;7.408;2023-02-01T02:26:44;21.30;;;6.10;;
4355;SDS011;64374;51.482;7.408;2023-02-01T02:32:34;22.93;;;5.17;;
4355;SDS011;64374;51.482;7.408;2023-02-01T02:35:35;19.87;;;5.70;;
4355;SDS011;64374;51.482;7.408;2023-02-01T02:38:12;21.33;;;4.57;;
4355;SDS011;64374;51.482;7.408;2023-02-01T02:41:05;14.63;;;5.10;;
4355;SDS011;64374;51.482;7.408;2023-02-01T02:43:42;17.53;;;6.30;;
4355;SDS011;64374;51.482;7.408;2023-02-01T02:46:33;24.60;;;4.90;;
4355;SDS011;64374;51.482;7.408;2023-02-01T02:49:27;23.00;;;6.50;;
4355;SDS011;64374;51.482;7.408;2023-02-01T02:52:08;14.47;;;4.37;;
4355;SDS011;64374;51.482;7.408;2023-02-01T02:54:59;9.93;;;3.60;;
4355;SDS011;64374;51.482;7.408;2023-02-01T02:57:32;12.90;;;5.13;;
4355;SDS011;64374;51.482;7.408;2023-02-01T03:00:22;14.60;;;4.57;;
4355;SDS011;64374;51.482;7.408;2023-02-01T03:03:13;14.83;;;4.57;;
4355;SDS011;64374;51.482;7.408;2023-02-01T03:06:00;33.17;;;5.07;;
4355;SDS011;64374;51.482;7.408;2023-02-01T03:08:31;13.43;;;4.63;;
4355;SDS011;64374;51.482;7.408;2023-02-01T03:11:00;17.77;;;4.10;;
4355;SDS011;64374;51.482;7.408;2023-02-01T03:13:33;17.37;;;4.10;;
4355;SDS011;64374;51.482;7.408;2023-02-01T03:16:07;22.47;;;4.80;;
4355;SDS011;64374;51.482;7.408;2023-02-01T03:18:42;17.40;;;4.73;;
4355;SDS011;64374;51.482;7.408;2023-02-01T03:21:18;15.83;;;4.20;;
4355;SDS011;64374;51.482;7.408;2023-02-01T03:23:56;11.57;;;4.50;;
4355;SDS011;64374;51.482;7.408;2023-02-01T03:26:28;18.53;;;3.77;;
4355;SDS011;64374;51.482;7.408;2023-02-01T03:29:00;18.27;;;3.90;;
4355;SDS011;64374;51.482;7.408;2023-02-01T03:31:35;18.57;;;4.50;;
4355;SDS011;64374;51.482;7.408;2023-02-01T03:34:04;9.03;;;3.70;;
4355;SDS011;64374;51.482;7.408;2023-02-01T03:36:35;21.13;;;4.57;;
4355;SDS011;64374;51.482;7.408;2023-02-01T03:39:11;22.33;;;4.70;;
4355;SDS011;64374;51.482;7.408;2023-02-01T03:41:49;20.17;;;3.73;;
4355;SDS011;64374;51.482;7.408;2023-02-01T03:44:21;22.17;;;4.37;;
4355;SDS011;64374;51.482;7.408;2023-02-01T03:46:53;14.00;;;3.43;;
4355;SDS011;64374;51.482;7.408;2023-02-01T03:49:27;14.30;;;5.00;;
4355;SDS011;64374;51.482;7.408;2023-02-01T03:51:58;18.47;;;3.97;;
4355;SDS011;64374;51.482;7.408;2023-02-01T03:54:29;19.97;;;3.20;;
4355;SDS011;64374;51.482;7.408;2023-02-01T03:57:01;16.43;;;4.77;;
4355;SDS011;64374;51.482;7.408;2023-02-01T03:59:37;17.17;;;4.17;;
4355;SDS011;64374;51.482;7.408;2023-02-01T04:02:07;15.03;;;4.33;;
4355;SDS011;64374;51.482;7.408;2023-02-01T04:04:36;8.00;;;2.93;;
4355;SDS011;64374;51.482;7.408;2023-02-01T04:07:05;26.17;;;4.90;;
4355;SDS011;64374;51.482;7.408;2023-02-01T04:09:35;18.13;;;4.43;;
4355;SDS011;64374;51.482;7.408;2023-02-01T04:12:06;16.40;;;4.17;;
4355;SDS011;64374;51.482;7.408;2023-02-01T04:14:34;20.03;;;4.50;;
4355;SDS011;64374;51.482;7.408;2023-02-01T04:17:03;18.73;;;4.77;;
4355;SDS011;64374;51.482;7.408;2023-02-01T04:19:31;19.80;;;4.80;;
4355;SDS011;64374;51.482;7.408;2023-02-01T04:22:00;13.73;;;4.60;;
4355;SDS011;64374;51.482;7.408;2023-02-01T04:24:28;19.33;;;3.70;;
4355;SDS011;64374;51.482;7.408;2023-02-01T04:26:57;36.63;;;5.70;;
4355;SDS011;64374;51.482;7.408;2023-02-01T04:29:26;15.33;;;5.20;;
4355;SDS011;64374;51.482;7.408;2023-02-01T04:31:54;21.27;;;4.40;;
4355;SDS011;64374;51.482;7.408;2023-02-01T04:34:23;21.13;;;4.60;;
4355;SDS011;64374;51.482;7.408;2023-02-01T04:36:51;21.37;;;4.50;;
4355;SDS011;64374;51.482;7.408;2023-02-01T04:39:20;20.03;;;4.27;;
4355;SDS011;64374;51.482;7.408;2023-02-01T04:41:48;12.63;;;3.20;;
4355;SDS011;64374;51.482;7.408;2023-02-01T04:44:19;18.53;;;5.03;;
4355;SDS011;64374;51.482;7.408;2023-02-01T04:46:47;16.13;;;4.70;;
4355;SDS011;64374;51.482;7.408;2023-02-01T04:49:16;16.43;;;3.97;;
4355;SDS011;64374;51.482;7.408;2023-02-01T04:51:44;20.40;;;4.43;;
4355;SDS011;64374;51.482;7.408;2023-02-01T04:54:13;18.80;;;3.90;;
4355;SDS011;64374;51.482;7.408;2023-02-01T04:56:42;21.03;;;4.10;;
4355;SDS011;64374;51.482;7.408;2023-02-01T04:59:11;19.27;;;4.00;;
4355;SDS011;64374;51.482;7.408;2023-02-01T05:01:44;11.80;;;3.80;;
4355;SDS011;64374;51.482;7.408;2023-02-01T05:04:14;17.33;;;4.20;;
4355;SDS011;64374;51.482;7.408;2023-02-01T05:06:45;23.93;;;4.90;;
4355;SDS011;64374;51.482;7.408;2023-02-01T05:09:15;14.70;;;4.67;;
4355;SDS011;64374;51.482;7.408;2023-02-01T05:11:43;19.53;;;4.70;;
4355;SDS011;64374;51.482;7.408;2023-02-01T05:14:28;29.77;;;5.50;;
4355;SDS011;64374;51.482;7.408;2023-02-01T05:16:58;27.43;;;6.50;;
4355;SDS011;64374;51.482;7.408;2023-02-01T05:19:27;24.90;;;4.70;;
4355;SDS011;64374;51.482;7.408;2023-02-01T05:21:55;21.17;;;4.97;;
4355;SDS011;64374;51.482;7.408;2023-02-01T05:24:24;20.37;;;4.77;;
4355;SDS011;64374;51.482;7.408;2023-02-01T05:26:53;20.40;;;4.27;;
4355;SDS011;64374;51.482;7.408;2023-02-01T05:29:23;25.33;;;4.97;;
4355;SDS011;64374;51.482;7.408;2023-02-01T05:31:52;18.50;;;4.50;;
4355;SDS011;64374;51.482;7.408;2023-02-01T05:34:22;17.70;;;3.90;;
4355;SDS011;64374;51.482;7.408;2023-02-01T05:36:51;19.13;;;4.97;;
4355;SDS011;64374;51.482;7.408;2023-02-01T05:39:19;10.73;;;4.27;;
4355;SDS011;64374;51.482;7.408;2023-02-01T05:41:47;19.73;;;4.40;;
4355;SDS011;64374;51.482;7.408;2023-02-01T05:44:16;18.23;;;4.60;;
4355;SDS011;64374;51.482;7.408;2023-02-01T05:46:45;17.33;;;4.27;;
4355;SDS011;64374;51.482;7.408;2023-02-01T05:49:16;17.13;;;4.17;;
4355;SDS011;64374;51.482;7.408;2023-02-01T05:51:47;17.50;;;4.23;;
4355;SDS011;64374;51.482;7.408;2023-02-01T05:54:16;26.70;;;4.80;;
4355;SDS011;64374;51.482;7.408;2023-02-01T05:56:45;24.10;;;6.50;;
4355;SDS011;64374;51.482;7.408;2023-02-01T05:59:13;21.33;;;4.30;;
4355;SDS011;64374;51.482;7.408;2023-02-01T06:01:42;24.20;;;5.13;;
4355;SDS011;64374;51.482;7.408;2023-02-01T06:04:10;15.33;;;4.73;;
4355;SDS011;64374;51.482;7.408;2023-02-01T06:06:39;18.93;;;4.87;;
4355;SDS011;64374;51.482;7.408;2023-02-01T06:09:09;14.10;;;3.83;;
4355;SDS011;64374;51.482;7.408;2023-02-01T06:11:39;20.57;;;4.83;;
4355;SDS011;64374;51.482;7.408;2023-02-01T06:14:08;19.20;;;4.67;;
4355;SDS011;64374;51.482;7.408;2023-02-01T06:16:36;22.90;;;5.13;;
4355;SDS011;64374;51.482;7.408;2023-02-01T06:19:04;16.67;;;4.87;;
4355;SDS011;64374;51.482;7.408;2023-02-01T06:21:33;20.03;;;5.33;;
4355;SDS011;64374;51.482;7.408;2023-02-01T06:24:02;19.43;;;5.13;;
4355;SDS011;64374;51.482;7.408;2023-02-01T06:26:34;25.77;;;4.53;;
4355;SDS011;64374;51.482;7.408;2023-02-01T06:29:02;12.77;;;4.70;;
4355;SDS011;64374;51.482;7.408;2023-02-01T06:31:31;15.93;;;4.53;;
4355;SDS011;64374;51.482;7.408;2023-02-01T06:33:59;20.37;;;4.77;;
4355;SDS011;64374;51.482;7.408;2023-02-01T06:36:30;21.23;;;4.13;;
4355;SDS011;64374;51.482;7.408;2023-02-01T06:38:58;12.30;;;4.53;;
4355;SDS011;64374;51.482;7.408;2023-02-01T06:41:26;20.47;;;5.20;;
4355;SDS011;64374;51.482;7.408;2023-02-01T06:43:57;20.50;;;4.67;;
4355;SDS011;64374;51.482;7.408;2023-02-01T06:46:25;17.80;;;4.37;;
4355;SDS011;64374;51.482;7.408;2023-02-01T06:48:56;17.00;;;4.80;;
4355;SDS011;64374;51.482;7.408;2023-02-01T06:51:25;20.10;;;5.20;;
4355;SDS011;64374;51.482;7.408;2023-02-01T06:53:55;16.43;;;4.07;;
4355;SDS011;64374;51.482;7.408;2023-02-01T06:56:23;15.40;;;4.00;;
4355;SDS011;64374;51.482;7.408;2023-02-01T06:58:52;19.60;;;3.97;;
4355;SDS011;64374;51.482;7.408;2023-02-01T07:01:21;14.53;;;4.37;;
4355;SDS011;64374;51.482;7.408;2023-02-01T07:03:50;16.53;;;4.50;;
4355;SDS011;64374;51.482;7.408;2023-02-01T07:06:18;20.20;;;4.27;;
4355;SDS011;64374;51.482;7.408;2023-02-01T07:08:46;15.30;;;4.20;;
4355;SDS011;64374;51.482;7.408;2023-02-01T07:11:15;28.90;;;4.47;;
4355;SDS011;64374;51.482;7.408;2023-02-01T07:13:44;21.83;;;4.90;;
4355;SDS011;64374;51.482;7.408;2023-02-01T07:16:14;21.97;;;5.10;;
4355;SDS011;64374;51.482;7.408;2023-02-01T07:18:45;17.07;;;5.00;;
4355;SDS011;64374;51.482;7.408;2023-02-01T07:21:14;27.00;;;4.67;;
4355;SDS011;64374;51.482;7.408;2023-02-01T07:23:42;17.40;;;5.00;;
4355;SDS011;64374;51.482;7.408;2023-02-01T07:26:11;17.10;;;3.83;;
4355;SDS011;64374;51.482;7.408;2023-02-01T07:28:43;28.50;;;5.33;;
4355;SDS011;64374;51.482;7.408;2023-02-01T07:31:14;17.33;;;4.57;;
4355;SDS011;64374;51.482;7.408;2023-02-01T07:33:47;16.47;;;4.53;;
4355;SDS011;64374;51.482;7.408;2023-02-01T07:36:18;20.70;;;5.17;;
4355;SDS011;64374;51.482;7.408;2023-02-01T07:38:47;12.67;;;3.90;;
4355;SDS011;64374;51.482;7.408;2023-02-01T07:41:17;19.13;;;4.97;;
4355;SDS011;64374;51.482;7.408;2023-02-01T07:43:46;9.60;;;4.30;;
4355;SDS011;64374;51.482;7.408;2023-02-01T07:46:17;30.00;;;6.03;;
4355;SDS011;64374;51.482;7.408;2023-02-01T07:48:47;8.33;;;3.80;;
4355;SDS011;64374;51.482;7.408;2023-02-01T07:51:15;12.43;;;4.47;;
4355;SDS011;64374;51.482;7.408;2023-02-01T07:53:44;17.40;;;4.27;;
4355;SDS011;64374;51.482;7.408;2023-02-01T07:56:13;22.97;;;5.27;;
4355;SDS011;64374;51.482;7.408;2023-02-01T07:58:46;21.73;;;5.50;;
4355;SDS011;64374;51.482;7.408;2023-02-01T08:01:15;17.90;;;4.67;;
4355;SDS011;64374;51.482;7.408;2023-02-01T08:03:48;17.30;;;5.53;;
4355;SDS011;64374;51.482;7.408;2023-02-01T08:06:19;18.13;;;4.87;;
4355;SDS011;64374;51.482;7.408;2023-02-01T08:08:47;25.40;;;4.90;;
4355;SDS011;64374;51.482;7.408;2023-02-01T08:11:17;23.57;;;5.47;;
4355;SDS011;64374;51.482;7.408;2023-02-01T08:13:47;25.30;;;5.40;;
4355;SDS011;64374;51.482;7.408;2023-02-01T08:16:16;21.47;;;4.47;;
4355;SDS011;64374;51.482;7.408;2023-02-01T08:18:47;23.30;;;5.27;;
4355;SDS011;64374;51.482;7.408;2023-02-01T08:21:16;20.97;;;5.37;;
4355;SDS011;64374;51.482;7.408;2023-02-01T08:23:46;20.60;;;5.13;;
4355;SDS011;64374;51.482;7.408;2023-02-01T08:26:18;18.80;;;5.90;;
4355;SDS011;64374;51.482;7.408;2023-02-01T08:28:49;16.83;;;5.43;;
4355;SDS011;64374;51.482;7.408;2023-02-01T08:31:20;25.00;;;6.57;;
4355;SDS011;64374;51.482;7.408;2023-02-01T08:33:52;14.27;;;5.80;;
4355;SDS011;64374;51.482;7.408;2023-02-01T08:36:22;18.53;;;4.63;;
4355;SDS011;64374;51.482;7.408;2023-02-01T08:38:53;21.30;;;5.07;;
4355;SDS011;64374;51.482;7.408;2023-02-01T08:41:22;18.83;;;6.10;;
4355;SDS011;64374;51.482;7.408;2023-02-01T08:43:52;23.43;;;5.63;;
4355;SDS011;64374;51.482;7.408;2023-02-01T08:46:21;20.83;;;6.20;;
4355;SDS011;64374;51.482;7.408;2023-02-01T08:48:52;21.60;;;6.03;;
4355;SDS011;64374;51.482;7.408;2023-02-01T08:51:21;19.87;;;4.80;;
4355;SDS011;64374;51.482;7.408;2023-02-01T08:53:50;22.90;;;6.67;;
4355;SDS011;64374;51.482;7.408;2023-02-01T08:56:19;26.73;;;6.20;;
4355;SDS011;64374;51.482;7.408;2023-02-01T08:58:49;31.40;;;5.73;;
4355;SDS011;64374;51.482;7.408;2023-02-01T09:01:17;24.07;;;6.67;;
4355;SDS011;64374;51.482;7.408;2023-02-01T09:03:45;22.60;;;6.03;;
4355;SDS011;64374;51.482;7.408;2023-02-01T09:06:15;20.80;;;6.37;;
4355;SDS011;64374;51.482;7.408;2023-02-01T09:08:44;20.33;;;5.53;;
4355;SDS011;64374;51.482;7.408;2023-02-01T09:11:13;20.97;;;5.60;;
4355;SDS011;64374;51.482;7.408;2023-02-01T09:13:43;15.03;;;4.87;;
4355;SDS011;64374;51.482;7.408;2023-02-01T09:16:11;34.70;;;6.87;;
4355;SDS011;64374;51.482;7.408;2023-02-01T09:18:40;15.93;;;5.30;;
4355;SDS011;64374;51.482;7.408;2023-02-01T09:21:29;18.47;;;6.10;;
4355;SDS011;64374;51.482;7.408;2023-02-01T09:23:57;20.93;;;6.80;;
4355;SDS011;64374;51.482;7.408;2023-02-01T09:26:26;17.63;;;4.97;;
4355;SDS011;64374;51.482;7.408;2023-02-01T09:28:59;21.63;;;7.60;;
4355;SDS011;64374;51.482;7.408;2023-02-01T09:31:28;19.93;;;5.90;;
4355;SDS011;64374;51.482;7.408;2023-02-01T09:33:57;20.83;;;5.10;;
4355;SDS011;64374;51.482;7.408;2023-02-01T09:36:25;23.07;;;5.10;;
4355;SDS011;64374;51.482;7.408;2023-02-01T09:38:58;23.40;;;5.90;;
4355;SDS011;64374;51.482;7.408;2023-02-01T09:41:31;15.80;;;5.50;;
4355;SDS011;64374;51.482;7.408;2023-02-01T09:44:07;25.40;;;5.13;;
4355;SDS011;64374;51.482;7.408;2023-02-01T09:46:45;16.30;;;5.37;;
4355;SDS011;64374;51.482;7.408;2023-02-01T09:49:15;23.70;;;5.10;;
4355;SDS011;64374;51.482;7.408;2023-02-01T09:51:48;17.40;;;5.33;;
4355;SDS011;64374;51.482;7.408;2023-02-01T09:54:21;19.13;;;6.07;;
4355;SDS011;64374;51.482;7.408;2023-02-01T09:56:56;19.70;;;6.77;;
4355;SDS011;64374;51.482;7.408;2023-02-01T09:59:32;14.27;;;4.57;;
4355;SDS011;64374;51.482;7.408;2023-02-01T10:02:10;16.03;;;5.00;;
4355;SDS011;64374;51.482;7.408;2023-02-01T10:04:44;17.87;;;6.10;;
4355;SDS011;64374;51.482;7.408;2023-02-01T10:07:16;16.10;;;5.13;;
4355;SDS011;64374;51.482;7.408;2023-02-01T10:10:00;13.90;;;5.30;;
4355;SDS011;64374;51.482;7.408;2023-02-01T10:12:41;21.90;;;6.20;;
4355;SDS011;64374;51.482;7.408;2023-02-01T10:15:26;22.63;;;7.43;;
4355;SDS011;64374;51.482;7.408;2023-02-01T10:18:04;16.80;;;5.00;;
4355;SDS011;64374;51.482;7.408;2023-02-01T10:20:47;26.00;;;5.83;;
4355;SDS011;64374;51.482;7.408;2023-02-01T10:23:30;21.70;;;6.10;;
4355;SDS011;64374;51.482;7.408;2023-02-01T10:26:12;28.93;;;5.47;;
4355;SDS011;64374;51.482;7.408;2023-02-01T10:28:48;14.60;;;5.20;;
4355;SDS011;64374;51.482;7.408;2023-02-01T10:31:18;22.03;;;5.40;;
4355;SDS011;64374;51.482;7.408;2023-02-01T10:33:52;19.30;;;5.90;;
4355;SDS011;64374;51.482;7.408;2023-02-01T10:36:25;18.70;;;4.57;;
4355;SDS011;64374;51.482;7.408;2023-02-01T10:38:57;19.77;;;5.37;;
4355;SDS011;64374;51.482;7.408;2023-02-01T10:41:30;14.37;;;4.60;;
4355;SDS011;64374;51.482;7.408;2023-02-01T10:44:02;18.30;;;6.50;;
4355;SDS011;64374;51.482;7.408;2023-02-01T10:46:34;24.40;;;5.90;;
4355;SDS011;64374;51.482;7.408;2023-02-01T10:49:02;25.90;;;6.07;;
4355;SDS011;64374;51.482;7.408;2023-02-01T10:51:37;26.27;;;5.50;;
4355;SDS011;64374;51.482;7.408;2023-02-01T10:54:11;17.40;;;5.47;;
4355;SDS011;64374;51.482;7.408;2023-02-01T10:56:46;17.00;;;6.47;;
4355;SDS011;64374;51.482;7.408;2023-02-01T10:59:16;19.97;;;6.40;;
4355;SDS011;64374;51.482;7.408;2023-02-01T11:01:47;13.53;;;4.80;;
4355;SDS011;64374;51.482;7.408;2023-02-01T11:04:18;21.20;;;5.60;;
4355;SDS011;64374;51.482;7.408;2023-02-01T11:06:47;31.57;;;5.50;;
4355;SDS011;64374;51.482;7.408;2023-02-01T11:09:19;16.57;;;4.03;;
4355;SDS011;64374;51.482;7.408;2023-02-01T11:11:56;19.27;;;4.60;;
4355;SDS011;64374;51.482;7.408;2023-02-01T11:14:27;19.53;;;5.17;;
4355;SDS011;64374;51.482;7.408;2023-02-01T11:17:24;16.50;;;4.90;;
4355;SDS011;64374;51.482;7.408;2023-02-01T11:19:56;17.13;;;4.90;;
4355;SDS011;64374;51.482;7.408;2023-02-01T11:22:26;25.37;;;4.97;;
4355;SDS011;64374;51.482;7.408;2023-02-01T11:25:09;10.43;;;3.50;;
4355;SDS011;64374;51.482;7.408;2023-02-01T11:27:44;12.70;;;4.57;;
4355;SDS011;64374;51.482;7.408;2023-02-01T11:30:22;14.53;;;3.83;;
4355;SDS011;64374;51.482;7.408;2023-02-01T11:32:59;19.90;;;5.73;;
4355;SDS011;64374;51.482;7.408;2023-02-01T11:35:32;26.83;;;5.67;;
4355;SDS011;64374;51.482;7.408;2023-02-01T11:38:10;26.70;;;4.40;;
4355;SDS011;64374;51.482;7.408;2023-02-01T11:40:47;17.63;;;5.07;;
4355;SDS011;64374;51.482;7.408;2023-02-01T11:43:19;17.77;;;6.07;;
4355;SDS011;64374;51.482;7.408;2023-02-01T11:45:55;22.27;;;4.87;;
4355;SDS011;64374;51.482;7.408;2023-02-01T11:48:25;18.57;;;4.70;;
4355;SDS011;64374;51.482;7.408;2023-02-01T11:51:04;13.80;;;4.77;;
4355;SDS011;64374;51.482;7.408;2023-02-01T11:53:48;13.90;;;4.50;;
4355;SDS011;64374;51.482;7.408;2023-02-01T11:56:30;21.10;;;4.87;;
4355;SDS011;64374;51.482;7.408;2023-02-01T11:59:14;18.20;;;6.03;;
4355;SDS011;64374;51.482;7.408;2023-02-01T12:02:08;17.07;;;4.93;;
4355;SDS011;64374;51.482;7.408;2023-02-01T12:07:47;21.93;;;4.70;;
4355;SDS011;64374;51.482;7.408;2023-02-01T12:10:31;10.33;;;4.80;;
4355;SDS011;64374;51.482;7.408;2023-02-01T12:13:12;23.63;;;5.20;;
4355;SDS011;64374;51.482;7.408;2023-02-01T12:15:54;20.27;;;5.73;;
4355;SDS011;64374;51.482;7.408;2023-02-01T12:18:39;21.93;;;5.70;;
4355;SDS011;64374;51.482;7.408;2023-02-01T12:21:42;16.10;;;5.70;;
4355;SDS011;64374;51.482;7.408;2023-02-01T12:24:26;20.60;;;4.83;;
4355;SDS011;64374;51.482;7.408;2023-02-01T12:27:33;12.40;;;4.63;;
4355;SDS011;64374;51.482;7.408;2023-02-01T12:30:22;14.20;;;4.00;;
4355;SDS011;64374;51.482;7.408;2023-02-01T12:33:15;20.23;;;5.83;;
4355;SDS011;64374;51.482;7.408;2023-02-01T12:35:51;25.93;;;5.80;;
4355;SDS011;64374;51.482;7.408;2023-02-01T12:38:42;15.03;;;4.53;;
4355;SDS011;64374;51.482;7.408;2023-02-01T12:41:45;25.67;;;5.87;;
4355;SDS011;64374;51.482;7.408;2023-02-01T12:44:24;15.00;;;5.20;;
4355;SDS011;64374;51.482;7.408;2023-02-01T12:47:03;19.17;;;5.07;;
4355;SDS011;64374;51.482;7.408;2023-02-01T12:49:41;21.73;;;4.90;;
4355;SDS011;64374;51.482;7.408;2023-02-01T12:52:15;22.30;;;4.80;;
4355;SDS011;64374;51.482;7.408;2023-02-01T12:54:49;20.00;;;4.90;;
4355;SDS011;64374;51.482;7.408;2023-02-01T12:57:24;14.37;;;4.50;;
4355;SDS011;64374;51.482;7.408;2023-02-01T12:59:59;17.83;;;4.73;;
4355;SDS011;64374;51.482;7.408;2023-02-01T13:02:34;14.87;;;4.77;;
4355;SDS011;64374;51.482;7.408;2023-02-01T13:05:13;11.73;;;4.03;;
4355;SDS011;64374;51.482;7.408;2023-02-01T13:07:48;11.30;;;4.93;;
4355;SDS011;64374;51.482;7.408;2023-02-01T13:10:21;10.80;;;3.70;;
4355;SDS011;64374;51.482;7.408;2023-02-01T13:12:58;19.30;;;5.60;;
4355;SDS011;64374;51.482;7.408;2023-02-01T13:15:33;9.83;;;4.43;;
4355;SDS011;64374;51.482;7.408;2023-02-01T13:18:06;15.53;;;4.67;;
4355;SDS011;64374;51.482;7.408;2023-02-01T13:20:45;22.00;;;5.57;;
4355;SDS011;64374;51.482;7.408;2023-02-01T13:23:22;19.23;;;4.10;;
4355;SDS011;64374;51.482;7.408;2023-02-01T13:25:54;14.47;;;4.47;;
4355;SDS011;64374;51.482;7.408;2023-02-01T13:28:24;13.40;;;4.20;;
4355;SDS011;64374;51.482;7.408;2023-02-01T13:31:07;15.20;;;4.47;;
4355;SDS011;64374;51.482;7.408;2023-02-01T13:34:01;18.30;;;5.00;;
4355;SDS011;64374;51.482;7.408;2023-02-01T13:36:59;22.93;;;5.27;;
4355;SDS011;64374;51.482;7.408;2023-02-01T13:40:04;16.93;;;4.50;;
4355;SDS011;64374;51.482;7.408;2023-02-01T13:42:46;12.67;;;3.80;;
4355;SDS011;64374;51.482;7.408;2023-02-01T13:45:17;15.20;;;4.00;;
4355;SDS011;64374;51.482;7.408;2023-02-01T13:47:53;21.60;;;4.23;;
4355;SDS011;64374;51.482;7.408;2023-02-01T13:50:24;15.03;;;3.77;;
4355;SDS011;64374;51.482;7.408;2023-02-01T13:53:00;9.70;;;2.43;;
4355;SDS011;64374;51.482;7.408;2023-02-01T13:55:33;12.97;;;3.80;;
4355;SDS011;64374;51.482;7.408;2023-02-01T13:58:11;13.73;;;3.93;;
4355;SDS011;64374;51.482;7.408;2023-02-01T14:00:47;17.60;;;4.07;;
4355;SDS011;64374;51.482;7.408;2023-02-01T14:03:20;14.23;;;3.77;;
4355;SDS011;64374;51.482;7.408;2023-02-01T14:05:57;17.83;;;4.00;;
4355;SDS011;64374;51.482;7.408;2023-02-01T14:11:53;12.07;;;3.40;;
4355;SDS011;64374;51.482;7.408;2023-02-01T14:23:21;21.23;;;4.57;;
4355;SDS011;64374;51.482;7.408;2023-02-01T14:26:01;14.93;;;3.70;;
4355;SDS011;64374;51.482;7.408;2023-02-01T14:28:36;13.03;;;3.23;;
4355;SDS011;64374;51.482;7.408;2023-02-01T14:31:30;13.70;;;3.77;;
4355;SDS011;64374;51.482;7.408;2023-02-01T14:34:13;16.60;;;3.63;;
4355;SDS011;64374;51.482;7.408;2023-02-01T14:36:47;17.43;;;4.10;;
4355;SDS011;64374;51.482;7.408;2023-02-01T14:39:29;16.97;;;3.87;;
4355;SDS011;64374;51.482;7.408;2023-02-01T14:42:06;19.57;;;4.47;;
4355;SDS011;64374;51.482;7.408;2023-02-01T14:44:47;15.60;;;3.60;;
4355;SDS011;64374;51.482;7.408;2023-02-01T14:47:32;17.50;;;4.30;;
4355;SDS011;64374;51.482;7.408;2023-02-01T14:53:04;18.60;;;5.00;;
4355;SDS011;64374;51.482;7.408;2023-02-01T14:55:51;19.57;;;4.50;;
4355;SDS011;64374;51.482;7.408;2023-02-01T14:58:30;21.53;;;4.10;;
4355;SDS011;64374;51.482;7.408;2023-02-01T15:01:05;17.90;;;4.63;;
4355;SDS011;64374;51.482;7.408;2023-02-01T15:03:55;19.53;;;3.83;;
4355;SDS011;64374;51.482;7.408;2023-02-01T15:06:30;14.87;;;3.67;;
4355;SDS011;64374;51.482;7.408;2023-02-01T15:09:07;31.33;;;5.23;;
4355;SDS011;64374;51.482;7.408;2023-02-01T15:11:54;15.73;;;3.60;;
4355;SDS011;64374;51.482;7.408;2023-02-01T15:14:25;18.00;;;5.00;;
4355;SDS011;64374;51.482;7.408;2023-02-01T15:16:56;20.53;;;4.17;;
4355;SDS011;64374;51.482;7.408;2023-02-01T15:19:25;11.33;;;3.20;;
4355;SDS011;64374;51.482;7.408;2023-02-01T15:21:56;16.43;;;3.40;;
4355;SDS011;64374;51.482;7.408;2023-02-01T15:24:27;13.70;;;3.00;;
4355;SDS011;64374;51.482;7.408;2023-02-01T15:27:02;13.53;;;3.60;;
4355;SDS011;64374;51.482;7.408;2023-02-01T15:29:32;13.97;;;4.30;;
4355;SDS011;64374;51.482;7.408;2023-02-01T15:32:01;22.07;;;5.13;;
4355;SDS011;64374;51.482;7.408;2023-02-01T15:34:46;14.50;;;3.80;;
4355;SDS011;64374;51.482;7.408;2023-02-01T15:37:16;22.17;;;3.50;;
4355;SDS011;64374;51.482;7.408;2023-02-01T15:40:04;18.83;;;4.47;;
4355;SDS011;64374;51.482;7.408;2023-02-01T15:42:50;17.80;;;4.37;;
4355;SDS011;64374;51.482;7.408;2023-02-01T15:45:21;10.27;;;2.70;;
4355;SDS011;64374;51.482;7.408;2023-02-01T15:47:58;17.00;;;3.87;;
4355;SDS011;64374;51.482;7.408;2023-02-01T15:50:28;13.93;;;3.70;;
4355;SDS011;64374;51.482;7.408;2023-02-01T15:52:58;20.63;;;3.57;;
4355;SDS011;64374;51.482;7.408;2023-02-01T15:55:30;17.83;;;3.57;;